Energy Champion — MJUZ7 — position and weather

sailwx.info

Track history (hours):
 
Tides and Currents Weather Stations Pressure Air Temp Water Temp Dewpoint Dewpoint Depression Visibility Wind Speed Wind Dir Waves Ship Positions

Energy Champion

Last reported at 2016-Dec-09 10:31 UTC. Time now 2016-Dec-09 21:19 UTC.
Position N 36°38' W 023°33'.

Length 228 m; draft 8 m.

Type: Ship. MMSI: 235009420.

Date/timePositionNaut miles runAvg speedWind from/ knotsBaromVisibWave heightAir tempDewpointWater temp
2016-Dec-09 10:31N 36°38' W 023°33'1313.4
2016-Dec-09 09:33N 36°38' W 023°50'1413.6
2016-Dec-09 08:33N 36°39' W 024°06'1413.6
2016-Dec-09 07:33N 36°40' W 024°23'1313.4
2016-Dec-09 06:33N 36°41' W 024°40'1413.9
2016-Dec-09 05:33N 36°41' W 024°57'1413.7
2016-Dec-09 04:33N 36°42' W 025°14'1413.8
2016-Dec-09 03:33N 36°43' W 025°31'1413.9
2016-Dec-09 02:34N 36°45' W 025°49'1414.0
2016-Dec-09 01:33N 36°46' W 026°06'1413.8
2016-Dec-09 00:33N 36°47' W 026°23'1413.8
2016-Dec-08 23:33N 36°48' W 026°41'1413.6
2016-Dec-08 22:33N 36°49' W 026°57'9713.5
2016-Dec-08 15:21N 36°58' W 028°58'1112.9
2016-Dec-08 14:30N 36°59' W 029°12'  
2016-Dec-01 18:29N 40°23' W 073°45'9 9.3
2016-Dec-01 17:33N 40°27' W 073°55'1211.6
2016-Dec-01 16:31N 40°30' W 074°10'5 4.5
2016-Dec-01 15:31N 40°33' W 074°14'4 4.4
2016-Dec-01 14:33N 40°37' W 074°12'1 0.0
2016-Nov-30 13:12N 40°38' W 074°12'2 3.5
2016-Nov-30 12:33N 40°39' W 074°09'5 4.5
2016-Nov-30 11:31N 40°37' W 074°03'0 0.1
2016-Nov-30 10:31N 40°37' W 074°03'0 0.2
2016-Nov-30 09:31N 40°37' W 074°03'0 0.2
2016-Nov-30 08:31N 40°37' W 074°03'0 0.0
2016-Nov-30 07:31N 40°37' W 074°03'0 0.0
2016-Nov-30 06:31N 40°37' W 074°03'0 0.0
2016-Nov-30 05:31N 40°37' W 074°03'0 0.0
2016-Nov-30 04:31N 40°37' W 074°03'0 0.1
2016-Nov-30 03:31N 40°37' W 074°03'0 0.2
2016-Nov-30 02:31N 40°37' W 074°03'0 0.0
2016-Nov-30 01:31N 40°37' W 074°03'0 0.0
2016-Nov-30 00:31N 40°37' W 074°03'0 0.0
2016-Nov-29 23:31N 40°37' W 074°03'0 0.0
2016-Nov-29 22:31N 40°37' W 074°03'0 0.1
2016-Nov-29 21:31N 40°37' W 074°03'0 0.2
2016-Nov-29 20:31N 40°37' W 074°03'0 0.0
2016-Nov-29 19:31N 40°37' W 074°03'0 0.0
2016-Nov-29 18:31N 40°37' W 074°03'0 0.0
2016-Nov-29 17:31N 40°37' W 074°03'0 0.0
2016-Nov-29 16:31N 40°37' W 074°03'0 0.3
2016-Nov-29 15:31N 40°37' W 074°03'0 0.1
2016-Nov-29 14:31N 40°37' W 074°03'0 0.0
2016-Nov-29 13:31N 40°37' W 074°03'0 0.0
2016-Nov-29 12:31N 40°37' W 074°03'0 0.0
2016-Nov-29 11:31N 40°37' W 074°03'  
Track history (hours):
 
Tides and Currents Weather Stations Pressure Air Temp Water Temp Dewpoint Dewpoint Depression Visibility Wind Speed Wind Dir Waves Ship Positions

Energy Champion

Last reported at 2016-Dec-09 10:31 UTC. Time now 2016-Dec-09 21:19 UTC.
Position N 36°38' W 023°33'.

Length 228 m; draft 8 m.

Type: Ship. MMSI: 235009420.

Date/timePositionNaut miles runAvg speedWind from/ knotsBaromVisibWave heightAir tempDewpointWater temp
2016-Dec-09 10:31N 36°38' W 023°33'1313.4
2016-Dec-09 09:33N 36°38' W 023°50'1413.6
2016-Dec-09 08:33N 36°39' W 024°06'1413.6
2016-Dec-09 07:33N 36°40' W 024°23'1313.4
2016-Dec-09 06:33N 36°41' W 024°40'1413.9
2016-Dec-09 05:33N 36°41' W 024°57'1413.7
2016-Dec-09 04:33N 36°42' W 025°14'1413.8
2016-Dec-09 03:33N 36°43' W 025°31'1413.9
2016-Dec-09 02:34N 36°45' W 025°49'1414.0
2016-Dec-09 01:33N 36°46' W 026°06'1413.8
2016-Dec-09 00:33N 36°47' W 026°23'1413.8
2016-Dec-08 23:33N 36°48' W 026°41'1413.6
2016-Dec-08 22:33N 36°49' W 026°57'9713.5
2016-Dec-08 15:21N 36°58' W 028°58'1112.9
2016-Dec-08 14:30N 36°59' W 029°12'  
2016-Dec-01 18:29N 40°23' W 073°45'9 9.3
2016-Dec-01 17:33N 40°27' W 073°55'1211.6
2016-Dec-01 16:31N 40°30' W 074°10'5 4.5
2016-Dec-01 15:31N 40°33' W 074°14'4 4.4
2016-Dec-01 14:33N 40°37' W 074°12'1 0.0
2016-Nov-30 13:12N 40°38' W 074°12'2 3.5
2016-Nov-30 12:33N 40°39' W 074°09'5 4.5
2016-Nov-30 11:31N 40°37' W 074°03'0 0.1
2016-Nov-30 10:31N 40°37' W 074°03'0 0.2
2016-Nov-30 09:31N 40°37' W 074°03'0 0.2
2016-Nov-30 08:31N 40°37' W 074°03'0 0.0
2016-Nov-30 07:31N 40°37' W 074°03'0 0.0
2016-Nov-30 06:31N 40°37' W 074°03'0 0.0
2016-Nov-30 05:31N 40°37' W 074°03'0 0.0
2016-Nov-30 04:31N 40°37' W 074°03'0 0.1
2016-Nov-30 03:31N 40°37' W 074°03'0 0.2
2016-Nov-30 02:31N 40°37' W 074°03'0 0.0
2016-Nov-30 01:31N 40°37' W 074°03'0 0.0
2016-Nov-30 00:31N 40°37' W 074°03'0 0.0
2016-Nov-29 23:31N 40°37' W 074°03'0 0.0
2016-Nov-29 22:31N 40°37' W 074°03'0 0.1
2016-Nov-29 21:31N 40°37' W 074°03'0 0.2
2016-Nov-29 20:31N 40°37' W 074°03'0 0.0
2016-Nov-29 19:31N 40°37' W 074°03'0 0.0
2016-Nov-29 18:31N 40°37' W 074°03'0 0.0
2016-Nov-29 17:31N 40°37' W 074°03'0 0.0
2016-Nov-29 16:31N 40°37' W 074°03'0 0.3
2016-Nov-29 15:31N 40°37' W 074°03'0 0.1
2016-Nov-29 14:31N 40°37' W 074°03'0 0.0
2016-Nov-29 13:31N 40°37' W 074°03'0 0.0
2016-Nov-29 12:31N 40°37' W 074°03'0 0.0
2016-Nov-29 11:31N 40°37' W 074°03'  

Dump ship's entire track history